Time;durP1;ratioP1;P1;durP2;ratioP2;P2;SDS_P1;SDS_P2;PMS_P1;PMS_P2;Temp;Humidity;BMP_temperature;BMP_pressure;BME280_temperature;BME280_humidity;BME280_pressure;Samples;Min_cycle;Max_cycle;Signal;HPM_P1;HPM_P2
2023/07/22 00:00:25;;;;;;;4.10;2.93;;;;;;;16.32;93.41;98132.00;4122274;28;20668;-82
2023/07/22 00:02:30;;;;;;;4.17;2.90;;;;;;;16.30;93.53;98126.88;4119802;28;20660;-84
2023/07/22 00:04:33;;;;;;;3.87;2.60;;;;;;;16.31;93.40;98138.22;4111040;28;21118;-84
2023/07/22 00:06:36;;;;;;;3.93;2.70;;;;;;;16.28;93.26;98141.13;4133884;28;21283;-84
2023/07/22 00:08:39;;;;;;;5.87;3.00;;;;;;;16.26;93.55;98137.81;4132735;28;20673;-84
2023/07/22 00:10:43;;;;;;;4.43;2.87;;;;;;;16.27;93.62;98136.84;4106737;28;21255;-84
2023/07/22 00:12:46;;;;;;;3.17;2.60;;;;;;;16.25;95.15;98134.34;4124467;28;21088;-84
2023/07/22 00:14:50;;;;;;;5.93;3.00;;;;;;;16.23;95.02;98131.00;4102466;28;20648;-84
2023/07/22 00:16:53;;;;;;;4.10;3.00;;;;;;;16.23;94.35;98138.91;4115640;28;20712;-84
2023/07/22 00:18:56;;;;;;;7.10;3.20;;;;;;;16.26;94.29;98129.91;4135750;28;20707;-85
2023/07/22 00:20:59;;;;;;;4.90;3.00;;;;;;;16.28;93.35;98134.09;4130552;28;20649;-84
2023/07/22 00:23:02;;;;;;;4.33;3.50;;;;;;;16.30;93.56;98137.41;4122813;28;20987;-84
2023/07/22 00:25:06;;;;;;;3.27;2.63;;;;;;;16.28;93.93;98136.72;4107421;28;20661;-84
2023/07/22 00:27:08;;;;;;;4.83;3.00;;;;;;;16.26;94.29;98136.00;4117316;28;20644;-85
2023/07/22 00:29:11;;;;;;;4.13;2.67;;;;;;;16.22;93.88;98125.88;4117946;28;20714;-85
2023/07/22 00:31:14;;;;;;;5.27;2.60;;;;;;;16.16;94.18;98123.78;4116200;28;20665;-85
2023/07/22 00:33:19;;;;;;;4.23;3.33;;;;;;;16.12;93.69;98127.66;4105866;28;20740;-85
2023/07/22 00:35:22;;;;;;;5.07;3.40;;;;;;;16.12;93.99;98132.94;4127838;28;20753;-84
2023/07/22 00:37:26;;;;;;;4.13;2.90;;;;;;;16.12;94.09;98133.75;4132866;28;20660;-84
2023/07/22 00:39:29;;;;;;;4.60;3.10;;;;;;;16.14;92.89;98144.97;4106271;28;20678;-85
2023/07/22 00:41:32;;;;;;;4.80;3.33;;;;;;;16.12;95.18;98138.19;4107157;28;20692;-85
2023/07/22 00:43:35;;;;;;;3.50;2.80;;;;;;;16.09;94.87;98139.28;4104487;28;20729;-84
2023/07/22 00:45:38;;;;;;;4.40;2.80;;;;;;;16.10;95.36;98140.09;4120016;28;20643;-84
2023/07/22 00:47:42;;;;;;;4.73;3.20;;;;;;;16.07;94.90;98140.38;4096860;28;20708;-84
2023/07/22 00:49:48;;;;;;;5.63;2.80;;;;;;;16.07;95.04;98135.13;4131528;28;20662;-84
2023/07/22 00:51:51;;;;;;;5.47;3.37;;;;;;;16.06;93.50;98133.47;4131768;28;20662;-84
2023/07/22 00:53:55;;;;;;;3.90;2.87;;;;;;;16.05;93.94;98129.19;4102966;28;24716;-84
2023/07/22 00:55:58;;;;;;;5.20;2.80;;;;;;;16.01;92.51;98130.41;4121083;28;20648;-85
2023/07/22 00:58:01;;;;;;;3.63;2.80;;;;;;;16.01;94.14;98134.84;4105207;28;20721;-84
2023/07/22 01:00:05;;;;;;;3.90;3.00;;;;;;;16.01;93.33;98130.41;4113352;28;20655;-85
2023/07/22 01:02:09;;;;;;;6.10;3.07;;;;;;;16.04;94.19;98119.59;4122590;28;20656;-84
2023/07/22 01:04:15;;;;;;;3.70;3.13;;;;;;;16.04;93.75;98123.09;4134272;28;20663;-85
2023/07/22 01:06:20;;;;;;;4.13;2.83;;;;;;;16.04;95.10;98117.84;4136129;28;20652;-85
2023/07/22 01:08:22;;;;;;;4.50;3.10;;;;;;;16.01;93.95;98114.63;4118486;28;20716;-85
2023/07/22 01:10:26;;;;;;;4.50;3.20;;;;;;;16.00;93.52;98122.66;4133743;28;20652;-85
2023/07/22 01:12:29;;;;;;;3.90;2.70;;;;;;;15.98;94.50;98112.25;4116874;28;20742;-84
2023/07/22 01:14:33;;;;;;;4.40;3.47;;;;;;;15.97;92.93;98122.94;4098138;28;20648;-84
2023/07/22 01:16:37;;;;;;;3.90;2.83;;;;;;;15.95;94.50;98120.47;4115239;28;20661;-84
2023/07/22 01:18:40;;;;;;;3.93;2.77;;;;;;;15.93;94.33;98111.84;4114741;28;20654;-84
2023/07/22 01:20:43;;;;;;;3.67;2.93;;;;;;;15.89;92.96;98113.13;4113308;28;21018;-85
2023/07/22 01:22:52;;;;;;;3.97;2.90;;;;;;;15.86;93.67;98109.91;4104639;28;20706;-85
2023/07/22 01:24:55;;;;;;;5.07;3.40;;;;;;;15.79;93.74;98107.00;4112721;28;21105;-84
2023/07/22 01:26:59;;;;;;;6.13;3.23;;;;;;;15.74;94.22;98103.94;4121074;28;21092;-85
2023/07/22 01:29:05;;;;;;;4.70;3.13;;;;;;;15.71;93.21;98106.84;4101820;28;20655;-84
2023/07/22 01:31:09;;;;;;;3.70;2.77;;;;;;;15.72;94.33;98115.56;4103504;28;21277;-84
2023/07/22 01:33:12;;;;;;;4.70;3.10;;;;;;;15.73;93.89;98112.78;4096409;28;20660;-84
2023/07/22 01:35:15;;;;;;;5.40;3.80;;;;;;;15.71;94.06;98114.75;4130935;28;20968;-84
2023/07/22 01:37:19;;;;;;;3.67;2.70;;;;;;;15.66;93.79;98105.59;4107071;28;21230;-84
2023/07/22 01:39:23;;;;;;;4.27;2.90;;;;;;;15.65;93.23;98111.78;4134004;28;21013;-84
2023/07/22 01:41:26;;;;;;;4.03;2.87;;;;;;;15.64;92.88;98110.16;4123722;28;21046;-84
2023/07/22 01:43:29;;;;;;;3.53;2.87;;;;;;;15.61;94.42;98107.78;4116804;28;21043;-85
2023/07/22 01:45:33;;;;;;;8.97;3.97;;;;;;;15.61;93.34;98105.97;4135710;28;20665;-85
2023/07/22 01:47:35;;;;;;;3.90;3.23;;;;;;;15.62;94.50;98112.06;4105256;28;20644;-84
2023/07/22 01:49:38;;;;;;;3.53;3.00;;;;;;;15.64;92.69;98113.59;4120875;28;20649;-84
2023/07/22 01:51:41;;;;;;;4.60;3.40;;;;;;;15.65;93.67;98114.44;4117334;28;20762;-85
2023/07/22 01:53:45;;;;;;;4.17;2.77;;;;;;;15.60;94.58;98104.31;4121224;28;20658;-85
2023/07/22 01:55:49;;;;;;;4.17;3.03;;;;;;;15.59;94.65;98107.94;4136116;28;20625;-85
2023/07/22 01:57:52;;;;;;;4.03;2.90;;;;;;;15.56;94.40;98110.81;4107936;28;20647;-85
2023/07/22 01:59:56;;;;;;;3.90;3.33;;;;;;;15.56;93.61;98102.94;4119099;28;20682;-85
2023/07/22 02:01:59;;;;;;;7.47;3.27;;;;;;;15.55;93.40;98104.88;4126434;28;20646;-84
2023/07/22 02:04:02;;;;;;;3.90;3.03;;;;;;;15.55;94.33;98108.34;4110197;28;20677;-84
2023/07/22 02:06:06;;;;;;;4.00;3.47;;;;;;;15.54;93.13;98113.72;4131233;28;20673;-85
2023/07/22 02:08:10;;;;;;;4.47;3.37;;;;;;;15.52;93.37;98119.13;4117499;28;20649;-85
2023/07/22 02:10:13;;;;;;;5.00;3.40;;;;;;;15.50;94.96;98114.94;4110791;28;20650;-84
2023/07/22 02:12:17;;;;;;;4.73;3.40;;;;;;;15.45;93.90;98120.59;4125584;28;21488;-84
2023/07/22 02:14:20;;;;;;;4.30;3.50;;;;;;;15.44;93.09;98123.38;4120359;28;20658;-85
2023/07/22 02:16:23;;;;;;;7.10;3.47;;;;;;;15.41;94.37;98129.75;4124028;28;20709;-84
2023/07/22 02:18:27;;;;;;;3.97;3.10;;;;;;;15.39;94.62;98126.41;4106586;28;20650;-85
2023/07/22 02:20:31;;;;;;;4.43;3.47;;;;;;;15.35;93.62;98125.03;4133100;28;21227;-84
2023/07/22 02:22:34;;;;;;;3.80;3.17;;;;;;;15.29;93.46;98124.69;4116632;28;21279;-86
2023/07/22 02:24:38;;;;;;;4.60;3.20;;;;;;;15.21;92.96;98119.28;4099392;28;20704;-85
2023/07/22 02:26:41;;;;;;;4.60;3.37;;;;;;;15.21;92.17;98127.16;4099334;28;20656;-85
2023/07/22 02:28:46;;;;;;;5.10;2.87;;;;;;;15.18;92.65;98117.75;4122107;28;20639;-85
2023/07/22 02:30:48;;;;;;;5.30;3.60;;;;;;;15.20;93.05;98126.34;4119964;28;20650;-85
2023/07/22 02:32:51;;;;;;;4.30;3.20;;;;;;;15.21;93.57;98127.16;4123489;28;21374;-85
2023/07/22 02:34:54;;;;;;;4.07;3.20;;;;;;;15.23;95.15;98130.47;4122774;28;20649;-85
2023/07/22 02:36:57;;;;;;;4.63;3.00;;;;;;;15.22;93.38;98124.41;4107008;28;20784;-86
2023/07/22 02:39:00;;;;;;;3.80;3.13;;;;;;;15.23;93.26;98133.09;4124903;28;20644;-85
2023/07/22 02:41:05;;;;;;;4.27;3.20;;;;;;;15.18;94.00;98130.06;4130799;28;20699;-86
2023/07/22 02:43:08;;;;;;;3.83;3.40;;;;;;;15.17;94.00;98126.59;4124120;28;20638;-85
2023/07/22 02:45:13;;;;;;;4.03;3.27;;;;;;;15.15;94.68;98132.91;4118425;28;20812;-86
2023/07/22 02:47:16;;;;;;;4.67;3.20;;;;;;;15.15;93.73;98118.00;4120451;28;20720;-85
2023/07/22 02:49:19;;;;;;;4.20;3.20;;;;;;;15.14;93.32;98126.00;4119855;28;20747;-86
2023/07/22 02:51:22;;;;;;;5.57;3.50;;;;;;;15.14;93.88;98123.38;4105638;28;21142;-86
2023/07/22 02:53:25;;;;;;;3.27;2.73;;;;;;;15.14;94.16;98126.00;4118600;28;20652;-85
2023/07/22 02:55:29;;;;;;;3.90;3.00;;;;;;;15.13;93.59;98124.34;4120570;28;20686;-85
2023/07/22 02:57:31;;;;;;;4.20;3.23;;;;;;;15.13;94.53;98125.16;4111645;28;21297;-85
2023/07/22 02:59:34;;;;;;;4.03;3.20;;;;;;;15.11;93.84;98123.66;4121388;28;20718;-85
2023/07/22 03:01:39;;;;;;;4.43;3.47;;;;;;;15.12;95.15;98120.03;4138860;28;21082;-85
2023/07/22 03:03:42;;;;;;;4.47;3.20;;;;;;;15.08;93.78;98122.09;4141033;28;20922;-85
2023/07/22 03:05:47;;;;;;;4.80;3.17;;;;;;;15.05;94.06;98115.44;4106881;28;20660;-85
2023/07/22 03:07:50;;;;;;;4.40;3.30;;;;;;;15.01;93.80;98117.50;4135906;28;20645;-85
2023/07/22 03:09:53;;;;;;;4.50;3.03;;;;;;;15.03;95.04;98128.69;4120871;28;21054;-85
2023/07/22 03:11:56;;;;;;;4.70;3.60;;;;;;;15.03;94.94;98126.06;4108777;28;20646;-85
2023/07/22 03:13:59;;;;;;;4.77;3.37;;;;;;;14.97;93.48;98120.53;4115599;28;21265;-85
2023/07/22 03:16:04;;;;;;;4.70;3.47;;;;;;;14.93;93.55;98116.47;4116794;28;20660;-85
2023/07/22 03:18:10;;;;;;;4.10;3.23;;;;;;;14.93;93.66;98116.47;4122040;28;20649;-85
2023/07/22 03:20:16;;;;;;;4.53;3.47;;;;;;;14.92;94.28;98114.84;4133146;28;20656;-85
2023/07/22 03:22:19;;;;;;;4.37;3.33;;;;;;;14.87;92.91;98117.84;4120435;28;21327;-85
2023/07/22 03:24:22;;;;;;;4.53;3.30;;;;;;;14.79;92.55;98111.56;4120008;28;20667;-85
2023/07/22 03:26:25;;;;;;;4.20;2.80;;;;;;;14.75;92.66;98111.00;4136737;28;21305;-85
2023/07/22 03:28:29;;;;;;;3.70;2.87;;;;;;;14.76;92.05;98106.59;4138962;28;20649;-85
2023/07/22 03:30:33;;;;;;;3.77;2.70;;;;;;;14.71;92.80;98117.47;4114041;28;20796;-85
2023/07/22 03:32:36;;;;;;;5.37;3.27;;;;;;;14.72;93.24;98121.78;4109831;28;20644;-85
2023/07/22 03:34:41;;;;;;;4.00;3.37;;;;;;;14.69;93.27;98119.41;4122872;28;20763;-85
2023/07/22 03:36:44;;;;;;;5.07;3.50;;;;;;;14.60;92.18;98114.94;4123192;28;20735;-85
2023/07/22 03:38:48;;;;;;;4.30;3.03;;;;;;;14.58;92.15;98107.31;4132425;28;20705;-85
2023/07/22 03:40:52;;;;;;;4.23;3.00;;;;;;;14.60;92.53;98114.94;4108338;28;20734;-84
2023/07/22 03:42:57;;;;;;;4.20;3.20;;;;;;;14.61;92.66;98110.50;4116078;28;20661;-85
2023/07/22 03:45:00;;;;;;;5.37;3.57;;;;;;;14.60;92.83;98112.31;4117344;28;20661;-84
2023/07/22 03:47:04;;;;;;;4.80;2.97;;;;;;;14.60;93.27;98112.31;4109606;28;20667;-85
2023/07/22 03:49:07;;;;;;;4.73;2.90;;;;;;;14.59;93.98;98115.88;4136568;28;20671;-85
2023/07/22 03:51:12;;;;;;;4.53;3.40;;;;;;;14.59;93.92;98115.06;4115188;28;20655;-86
2023/07/22 03:53:22;;;;;;;4.30;2.90;;;;;;;14.60;94.01;98119.34;4119126;28;20648;-85
2023/07/22 03:55:26;;;;;;;4.07;3.50;;;;;;;14.62;93.45;98120.03;4140715;28;20653;-85
2023/07/22 03:57:29;;;;;;;3.27;2.60;;;;;;;14.64;93.73;98123.38;4109135;28;20646;-85
2023/07/22 03:59:31;;;;;;;4.77;3.60;;;;;;;14.67;94.43;98130.97;4133663;28;20655;-86
2023/07/22 04:01:34;;;;;;;5.33;3.67;;;;;;;14.68;93.99;98130.03;4121426;28;21477;-86
2023/07/22 04:03:37;;;;;;;4.83;3.20;;;;;;;14.72;93.90;98140.16;4130734;28;20748;-86
2023/07/22 04:05:40;;;;;;;4.30;3.33;;;;;;;14.73;95.11;98136.56;4121071;28;20657;-86
2023/07/22 04:07:45;;;;;;;4.40;3.37;;;;;;;14.77;94.62;98145.84;4134919;28;21066;-85
2023/07/22 04:09:48;;;;;;;7.23;4.87;;;;;;;14.79;94.38;98141.31;4122940;28;20741;-85
2023/07/22 04:11:51;;;;;;;4.87;3.63;;;;;;;14.81;94.01;98144.63;4131072;28;21262;-85
2023/07/22 04:13:54;;;;;;;6.00;3.20;;;;;;;14.83;94.26;98147.94;4118091;28;20665;-85
2023/07/22 04:15:58;;;;;;;5.23;3.90;;;;;;;14.85;94.24;98142.56;4106587;28;20656;-85
2023/07/22 04:18:01;;;;;;;4.03;3.10;;;;;;;14.83;93.75;98134.81;4117423;28;20791;-85
2023/07/22 04:20:05;;;;;;;5.27;3.13;;;;;;;14.82;93.49;98135.78;4131196;28;21297;-85
2023/07/22 04:22:10;;;;;;;4.13;3.30;;;;;;;14.82;94.37;98135.78;4118636;28;21259;-86
2023/07/22 04:24:13;;;;;;;5.40;3.63;;;;;;;14.86;94.88;98141.63;4121130;28;20769;-85
2023/07/22 04:26:17;;;;;;;3.97;3.30;;;;;;;14.90;93.90;98137.75;4114512;28;20661;-86
2023/07/22 04:28:20;;;;;;;3.60;2.87;;;;;;;14.95;94.87;98139.03;4120586;28;20663;-85
2023/07/22 04:30:24;;;;;;;3.83;2.90;;;;;;;15.00;94.90;98141.28;4130498;28;20753;-85
2023/07/22 04:32:27;;;;;;;4.77;2.93;;;;;;;15.03;95.15;98146.28;4119808;28;20645;-85
2023/07/22 04:34:32;;;;;;;4.57;3.10;;;;;;;15.05;95.07;98136.44;4100889;28;20648;-85
2023/07/22 04:36:36;;;;;;;4.33;3.40;;;;;;;15.09;93.68;98141.31;4133407;28;20702;-85
2023/07/22 04:38:39;;;;;;;4.80;3.47;;;;;;;15.11;94.06;98139.41;4118504;28;20682;-85
2023/07/22 04:40:45;;;;;;;5.00;3.00;;;;;;;15.13;93.57;98129.59;4132024;28;20658;-85
2023/07/22 04:42:48;;;;;;;4.17;2.90;;;;;;;15.14;94.98;98136.53;4136378;28;20682;-85
2023/07/22 04:44:51;;;;;;;4.07;3.20;;;;;;;15.18;94.00;98136.16;4105470;28;20739;-85
2023/07/22 04:46:55;;;;;;;3.70;3.00;;;;;;;15.23;93.63;98135.72;4122656;28;20670;-85
2023/07/22 04:48:58;;;;;;;4.70;3.77;;;;;;;15.27;93.16;98126.63;4136429;28;21238;-85
2023/07/22 04:51:02;;;;;;;7.57;3.37;;;;;;;15.28;92.44;98128.31;4133969;28;20737;-84
2023/07/22 04:53:05;;;;;;;4.50;3.43;;;;;;;15.27;94.09;98140.59;4122819;28;21244;-85
2023/07/22 04:55:09;;;;;;;4.20;3.43;;;;;;;15.31;94.32;98135.94;4108934;28;20704;-85
2023/07/22 04:57:13;;;;;;;6.30;3.77;;;;;;;15.36;94.75;98137.19;4086256;28;20650;-85
2023/07/22 04:59:16;;;;;;;4.63;3.27;;;;;;;15.42;94.71;98136.66;4107492;28;21666;-85
2023/07/22 05:01:18;;;;;;;3.87;3.03;;;;;;;15.49;93.95;98136.97;4112858;28;20688;-85
2023/07/22 05:03:25;;;;;;;4.03;3.20;;;;;;;15.54;94.83;98142.66;4116776;28;20800;-85
2023/07/22 05:05:28;;;;;;;3.43;2.77;;;;;;;15.58;94.18;98147.50;4124826;28;20652;-85
2023/07/22 05:07:31;;;;;;;4.50;3.40;;;;;;;15.62;93.25;98148.88;4136078;28;20672;-86
2023/07/22 05:09:34;;;;;;;5.50;3.13;;;;;;;15.68;92.90;98149.19;4129742;28;20864;-86
2023/07/22 05:11:37;;;;;;;3.83;3.07;;;;;;;15.74;93.27;98148.66;4126629;28;20656;-86
2023/07/22 05:13:41;;;;;;;4.40;3.00;;;;;;;15.79;94.40;98149.06;4115588;28;21257;-85
2023/07/22 05:15:44;;;;;;;3.97;3.20;;;;;;;15.83;94.15;98153.13;4130105;28;21003;-86
2023/07/22 05:17:47;;;;;;;6.73;3.53;;;;;;;15.90;92.36;98153.41;4110246;28;21357;-86
2023/07/22 05:19:50;;;;;;;3.00;2.70;;;;;;;15.94;93.12;98160.88;4128538;28;20666;-86
2023/07/22 05:21:53;;;;;;;3.50;3.20;;;;;;;16.00;93.04;98151.59;4133044;28;20726;-86
2023/07/22 05:23:57;;;;;;;3.80;3.20;;;;;;;16.06;92.17;98159.78;4134635;28;20772;-86
2023/07/22 05:26:00;;;;;;;3.77;2.87;;;;;;;16.13;92.49;98163.53;4107355;28;20750;-86
2023/07/22 05:28:03;;;;;;;4.07;3.00;;;;;;;16.21;91.71;98168.97;4121164;28;20702;-86
2023/07/22 05:30:09;;;;;;;3.43;2.90;;;;;;;16.28;92.12;98170.09;4132121;28;20660;-86
2023/07/22 05:32:22;;;;;;;4.30;3.03;;;;;;;16.36;92.40;98170.25;4133577;28;20649;-86
2023/07/22 05:34:36;;;;;;;4.23;3.10;;;;;;;16.41;92.20;98168.03;4120311;28;20662;-86
2023/07/22 05:36:39;;;;;;;3.70;3.10;;;;;;;16.47;91.75;98180.63;4135380;28;20891;-86
2023/07/22 05:38:42;;;;;;;4.10;3.10;;;;;;;16.53;91.61;98171.19;4122983;28;20650;-86
2023/07/22 05:40:45;;;;;;;4.40;3.87;;;;;;;16.63;93.60;98171.22;4131853;28;20693;-86
2023/07/22 05:42:48;;;;;;;4.30;3.60;;;;;;;16.75;91.83;98184.09;4116557;28;20661;-85
2023/07/22 05:44:51;;;;;;;4.40;3.73;;;;;;;16.90;92.67;98179.19;4132500;28;20661;-86
2023/07/22 05:46:56;;;;;;;3.07;2.77;;;;;;;17.06;92.16;98181.13;4134507;28;20650;-86
2023/07/22 05:48:59;;;;;;;5.50;3.70;;;;;;;17.31;92.86;98188.44;4108422;28;20687;-86
2023/07/22 05:51:02;;;;;;;4.90;3.47;;;;;;;17.63;92.43;98191.50;4127387;28;20673;-86
2023/07/22 05:53:05;;;;;;;4.97;3.53;;;;;;;17.93;91.65;98184.94;4118397;28;20749;-86
2023/07/22 05:55:09;;;;;;;4.90;3.00;;;;;;;18.29;92.22;98193.81;4118443;28;20661;-86
2023/07/22 05:57:12;;;;;;;3.43;2.60;;;;;;;18.67;91.40;98202.25;4132222;28;20764;-86
2023/07/22 05:59:15;;;;;;;3.83;3.00;;;;;;;19.04;90.31;98198.47;4117977;28;21475;-86
2023/07/22 06:01:24;;;;;;;3.60;2.87;;;;;;;19.37;89.76;98208.31;4123170;28;21308;-86
2023/07/22 06:03:29;;;;;;;4.10;2.53;;;;;;;19.70;87.50;98211.78;4140847;28;21093;-86
2023/07/22 06:05:32;;;;;;;6.10;3.60;;;;;;;19.98;85.24;98216.75;4138982;28;20652;-86
2023/07/22 06:07:36;;;;;;;3.83;3.00;;;;;;;20.24;85.26;98219.34;4111851;28;20681;-87
2023/07/22 06:09:39;;;;;;;3.87;3.33;;;;;;;20.52;84.26;98216.25;4097633;28;20738;-86
2023/07/22 06:11:42;;;;;;;3.20;2.80;;;;;;;20.74;82.22;98226.28;4116640;28;21135;-86
2023/07/22 06:13:46;;;;;;;3.70;3.30;;;;;;;20.86;82.01;98225.78;4119528;28;21252;-86
2023/07/22 06:15:49;;;;;;;3.10;2.60;;;;;;;21.08;81.70;98219.78;4133964;28;20688;-86
2023/07/22 06:17:52;;;;;;;4.10;2.83;;;;;;;21.29;80.50;98229.75;4137056;28;21042;-86
2023/07/22 06:19:56;;;;;;;3.10;2.60;;;;;;;21.46;79.56;98218.13;4138509;28;20686;-86
2023/07/22 06:21:59;;;;;;;3.90;2.90;;;;;;;21.68;79.25;98225.41;4119475;28;21244;-85
2023/07/22 06:24:02;;;;;;;4.53;2.57;;;;;;;21.89;78.97;98223.00;4132913;28;20647;-86
2023/07/22 06:26:06;;;;;;;3.30;2.60;;;;;;;21.97;78.75;98221.16;4131896;28;20692;-86
2023/07/22 06:28:09;;;;;;;3.57;2.70;;;;;;;22.12;76.84;98215.97;4113623;28;20663;-85
2023/07/22 06:30:12;;;;;;;3.57;2.70;;;;;;;22.29;77.53;98216.53;4114246;28;20666;-86
2023/07/22 06:32:15;;;;;;;4.97;3.17;;;;;;;22.47;76.26;98224.28;4133076;28;21060;-86
2023/07/22 06:34:19;;;;;;;3.80;2.30;;;;;;;22.69;75.00;98226.97;4098589;28;20661;-86
2023/07/22 06:36:24;;;;;;;3.73;2.53;;;;;;;22.87;75.57;98228.31;4103552;28;20709;-86
2023/07/22 06:38:27;;;;;;;5.63;2.60;;;;;;;23.09;73.22;98226.69;4108117;28;20708;-86
2023/07/22 06:40:30;;;;;;;3.60;2.20;;;;;;;23.28;72.25;98232.34;4116938;28;21308;-86
2023/07/22 06:42:33;;;;;;;3.43;2.20;;;;;;;23.46;70.12;98235.50;4114740;28;21284;-86
2023/07/22 06:44:36;;;;;;;3.23;2.50;;;;;;;23.64;70.71;98236.84;4135258;28;20991;-84
2023/07/22 06:46:40;;;;;;;3.80;2.23;;;;;;;23.87;71.88;98224.28;4110671;28;20663;-84
2023/07/22 06:48:43;;;;;;;3.33;2.33;;;;;;;24.11;71.09;98232.81;4115642;28;21128;-84
2023/07/22 06:50:48;;;;;;;4.67;2.70;;;;;;;24.26;69.32;98229.13;4130402;28;21215;-84
2023/07/22 06:52:53;;;;;;;3.27;2.30;;;;;;;24.45;68.83;98231.25;4125598;28;20655;-85
2023/07/22 06:54:55;;;;;;;5.50;2.83;;;;;;;24.63;69.42;98231.66;4127700;28;20672;-84
2023/07/22 06:56:58;;;;;;;3.50;2.20;;;;;;;24.79;66.97;98228.75;4122944;28;20677;-84
2023/07/22 06:59:01;;;;;;;2.80;2.50;;;;;;;24.91;68.29;98240.56;4141685;28;20998;-84
2023/07/22 07:01:04;;;;;;;3.47;2.50;;;;;;;25.00;66.34;98226.94;4124154;28;21191;-84
2023/07/22 07:03:08;;;;;;;3.53;2.50;;;;;;;25.13;65.84;98220.91;4119014;28;20657;-84
2023/07/22 07:05:11;;;;;;;2.97;2.33;;;;;;;25.24;66.30;98227.41;4105584;28;20742;-85
2023/07/22 07:07:15;;;;;;;2.90;2.33;;;;;;;25.40;66.14;98224.44;4121847;28;20663;-83
2023/07/22 07:09:19;;;;;;;3.70;2.70;;;;;;;25.51;65.01;98228.44;4101303;28;20743;-83
2023/07/22 07:11:22;;;;;;;3.53;2.33;;;;;;;25.60;65.14;98225.41;4133669;28;20642;-83
2023/07/22 07:13:26;;;;;;;3.03;2.30;;;;;;;25.74;63.66;98213.81;4132958;28;20710;-83
2023/07/22 07:15:29;;;;;;;2.70;2.07;;;;;;;25.85;64.58;98221.31;4117441;28;20693;-83
2023/07/22 07:17:32;;;;;;;2.63;2.20;;;;;;;25.98;65.90;98226.72;4111821;28;20653;-84
2023/07/22 07:19:34;;;;;;;3.10;2.23;;;;;;;26.09;63.02;98227.81;4115458;28;20642;-81
2023/07/22 07:21:38;;;;;;;4.00;2.53;;;;;;;26.19;64.69;98225.63;4124850;28;20788;-83
2023/07/22 07:23:41;;;;;;;3.63;2.43;;;;;;;26.31;62.46;98225.88;4118417;28;20664;-82
2023/07/22 07:25:45;;;;;;;3.23;2.60;;;;;;;26.36;62.74;98223.47;4123403;28;20645;-83
2023/07/22 07:27:48;;;;;;;3.60;2.30;;;;;;;26.39;62.69;98223.88;4118061;28;20637;-83
2023/07/22 07:29:50;;;;;;;3.70;2.70;;;;;;;26.47;63.07;98220.22;4100012;28;20661;-83
2023/07/22 07:31:57;;;;;;;3.20;2.37;;;;;;;26.51;63.73;98226.78;4117254;28;20658;-84
2023/07/22 07:34:00;;;;;;;3.07;2.37;;;;;;;26.59;63.84;98216.75;4104483;28;21199;-82
2023/07/22 07:36:04;;;;;;;2.43;1.80;;;;;;;26.70;64.32;98225.03;4119955;28;20657;-80
2023/07/22 07:38:07;;;;;;;3.27;2.63;;;;;;;26.75;63.46;98219.06;4118338;28;20748;-82
2023/07/22 07:40:11;;;;;;;2.73;2.03;;;;;;;26.66;61.66;98220.28;4118390;28;20723;-82
2023/07/22 07:42:16;;;;;;;3.93;2.30;;;;;;;26.70;62.38;98213.47;4113676;28;20699;-82
2023/07/22 07:44:19;;;;;;;3.37;2.37;;;;;;;26.78;61.95;98213.31;4128554;28;20769;-82
2023/07/22 07:46:23;;;;;;;3.57;2.30;;;;;;;26.77;63.38;98215.13;4111828;28;20663;-82
2023/07/22 07:48:27;;;;;;;4.63;3.80;;;;;;;26.84;61.71;98217.84;4114748;28;20678;-82
2023/07/22 07:50:30;;;;;;;4.23;2.67;;;;;;;26.86;62.24;98208.56;4117532;28;20662;-82
2023/07/22 07:52:32;;;;;;;2.73;2.20;;;;;;;26.94;61.72;98208.41;4119571;28;20664;-82
2023/07/22 07:54:36;;;;;;;3.07;2.00;;;;;;;27.03;60.57;98206.38;4129783;28;21206;-82
2023/07/22 07:56:38;;;;;;;3.27;2.30;;;;;;;27.11;60.87;98205.16;4135768;28;21020;-82
2023/07/22 07:58:42;;;;;;;2.97;2.40;;;;;;;27.17;61.69;98209.69;4118606;28;21025;-82
2023/07/22 08:00:45;;;;;;;2.60;2.20;;;;;;;27.22;59.28;98201.84;4109523;28;21022;-82
2023/07/22 08:02:47;;;;;;;2.67;1.90;;;;;;;27.28;61.00;98197.53;4105863;28;20656;-82
2023/07/22 08:04:51;;;;;;;3.13;2.30;;;;;;;27.41;59.49;98200.19;4104279;28;20664;-82
2023/07/22 08:06:54;;;;;;;3.37;2.00;;;;;;;27.41;60.06;98200.19;4122186;28;20662;-82
2023/07/22 08:08:57;;;;;;;3.63;2.50;;;;;;;27.54;59.89;98201.03;4134146;28;20662;-82
2023/07/22 08:11:01;;;;;;;3.53;2.40;;;;;;;27.63;59.72;98189.06;4121121;28;20641;-82
2023/07/22 08:13:04;;;;;;;3.00;2.33;;;;;;;27.77;59.04;98196.06;4129442;28;21277;-82
2023/07/22 08:15:10;;;;;;;3.20;1.97;;;;;;;27.76;60.53;98189.06;4126062;28;20687;-82
2023/07/22 08:17:13;;;;;;;2.90;2.07;;;;;;;27.77;60.12;98196.06;4138872;28;20642;-82
2023/07/22 08:19:16;;;;;;;3.70;2.07;;;;;;;27.88;60.41;98195.44;4135684;28;20699;-82
2023/07/22 08:21:19;;;;;;;2.80;1.90;;;;;;;27.92;58.90;98191.28;4123178;28;20663;-82
2023/07/22 08:23:22;;;;;;;2.43;2.00;;;;;;;28.00;58.72;98191.88;4124783;28;20849;-82
2023/07/22 08:25:25;;;;;;;2.67;2.10;;;;;;;28.05;58.16;98192.06;4140865;28;20661;-82
2023/07/22 08:27:28;;;;;;;2.90;2.00;;;;;;;28.04;57.67;98190.44;4136135;28;21105;-82
2023/07/22 08:29:31;;;;;;;3.93;2.40;;;;;;;28.07;58.48;98190.84;4118569;28;20703;-82
2023/07/22 08:31:36;;;;;;;2.83;2.20;;;;;;;28.19;57.91;98185.66;4137498;28;20643;-82
2023/07/22 08:33:39;;;;;;;2.70;1.80;;;;;;;28.28;58.07;98185.22;4121283;28;20703;-82
2023/07/22 08:35:45;;;;;;;2.23;1.80;;;;;;;28.27;57.52;98182.75;4120915;28;20702;-82
2023/07/22 08:37:48;;;;;;;2.30;1.80;;;;;;;28.33;57.57;98182.72;4119665;28;20659;-82
2023/07/22 08:39:51;;;;;;;3.03;2.00;;;;;;;28.45;56.94;98182.88;4105942;28;20647;-82
2023/07/22 08:41:56;;;;;;;2.47;1.70;;;;;;;28.54;56.79;98182.41;4127076;28;20623;-81
2023/07/22 08:44:00;;;;;;;2.60;2.00;;;;;;;28.60;56.38;98184.25;4117135;28;20652;-82
2023/07/22 08:46:06;;;;;;;2.30;1.67;;;;;;;28.69;56.50;98182.97;4121173;28;20636;-82
2023/07/22 08:48:11;;;;;;;3.93;1.87;;;;;;;28.77;55.09;98177.34;4137464;28;20638;-82
2023/07/22 08:50:17;;;;;;;2.50;1.70;;;;;;;28.73;55.14;98178.81;4121995;28;20651;-82
2023/07/22 08:52:20;;;;;;;2.80;1.87;;;;;;;28.74;55.01;98180.47;4124499;28;20686;-81
2023/07/22 08:54:24;;;;;;;2.00;1.53;;;;;;;28.64;55.13;98172.00;4119723;28;20654;-82
2023/07/22 08:56:27;;;;;;;4.10;2.37;;;;;;;28.57;55.71;98169.38;4124565;28;20652;-82
2023/07/22 08:58:32;;;;;;;2.40;2.13;;;;;;;28.54;55.16;98163.63;4122921;28;20695;-82
2023/07/22 09:00:34;;;;;;;2.97;2.07;;;;;;;28.59;56.00;98161.09;4134829;28;20635;-82
2023/07/22 09:02:38;;;;;;;2.50;1.83;;;;;;;28.57;54.92;98165.88;4124398;28;21285;-82
2023/07/22 09:04:42;;;;;;;3.10;1.70;;;;;;;28.61;56.04;98159.00;4137053;28;20672;-82
2023/07/22 09:06:46;;;;;;;3.80;1.70;;;;;;;28.59;55.81;98161.09;4138274;28;20663;-82
2023/07/22 09:08:50;;;;;;;2.40;1.90;;;;;;;28.64;53.14;98158.56;4134865;28;20636;-82
2023/07/22 09:10:53;;;;;;;2.37;1.90;;;;;;;28.51;53.67;98154.13;4133513;28;20635;-82
2023/07/22 09:12:57;;;;;;;2.77;1.50;;;;;;;28.28;53.92;98153.00;4125059;28;20684;-82
2023/07/22 09:15:00;;;;;;;2.97;2.00;;;;;;;28.28;54.11;98153.00;4134437;28;20690;-82
2023/07/22 09:17:05;;;;;;;3.30;2.13;;;;;;;28.30;54.54;98145.56;4125488;28;20769;-82
2023/07/22 09:19:08;;;;;;;4.03;2.37;;;;;;;28.02;53.92;98137.00;4124926;28;20738;-82
2023/07/22 09:21:13;;;;;;;3.20;2.23;;;;;;;27.96;54.52;98134.31;4103966;28;20708;-82
2023/07/22 09:23:16;;;;;;;2.30;1.80;;;;;;;27.84;54.79;98132.50;4134958;28;20661;-82
2023/07/22 09:25:20;;;;;;;2.67;1.83;;;;;;;27.86;55.43;98130.41;4119988;28;20663;-82
2023/07/22 09:27:34;;;;;;;2.97;2.20;;;;;;;27.64;55.08;98132.56;4117922;28;21133;-82
2023/07/22 09:29:40;;;;;;;2.40;1.90;;;;;;;27.34;56.04;98125.16;4123185;28;20667;-82
2023/07/22 09:31:50;;;;;;;2.00;1.60;;;;;;;27.16;56.28;98126.81;4123343;28;20634;-82
2023/07/22 09:33:55;;;;;;;3.20;2.10;;;;;;;27.04;57.24;98123.94;4105533;28;20684;-82
2023/07/22 09:35:58;;;;;;;2.53;1.87;;;;;;;26.94;57.11;98128.03;4120245;28;20647;-82
2023/07/22 09:38:02;;;;;;;3.50;2.30;;;;;;;26.86;56.28;98119.38;4133475;28;20654;-82
2023/07/22 09:40:13;;;;;;;3.57;1.90;;;;;;;26.75;57.88;98115.44;4102437;28;20684;-82
2023/07/22 09:42:25;;;;;;;2.97;1.90;;;;;;;26.69;57.62;98112.78;4136390;28;20652;-82